Time;durP1;ratioP1;P1;durP2;ratioP2;P2;SDS_P1;SDS_P2;PMS_P1;PMS_P2;Temp;Humidity;BMP_temperature;BMP_pressure;BME280_temperature;BME280_humidity;BME280_pressure;Samples;Min_cycle;Max_cycle;Signal;HPM_P1;HPM_P2
2022/06/13 00:00:25;;;;;;;13.18;6.80;;;17.80;99.90;;;;;;5077186;28;20028;-62
2022/06/13 00:02:51;;;;;;;13.20;6.82;;;17.90;99.90;;;;;;5088940;28;20032;-63
2022/06/13 00:05:17;;;;;;;13.35;6.95;;;17.80;99.90;;;;;;5081763;28;20125;-62
2022/06/13 00:07:43;;;;;;;14.10;7.13;;;17.70;99.90;;;;;;5080967;28;20361;-61
2022/06/13 00:10:11;;;;;;;14.70;7.40;;;17.50;99.90;;;;;;5077366;28;20443;-66
2022/06/13 00:12:37;;;;;;;10.73;7.00;;;17.50;99.90;;;;;;5089078;28;20127;-60
2022/06/13 00:15:04;;;;;;;12.85;5.43;;;17.40;99.90;;;;;;5089762;28;20024;-62
2022/06/13 00:17:29;;;;;;;11.40;4.65;;;17.20;99.90;;;;;;5072642;28;20031;-61
2022/06/13 00:19:55;;;;;;;7.50;4.50;;;17.00;99.90;;;;;;5071398;28;20037;-61
2022/06/13 00:22:21;;;;;;;8.60;4.45;;;16.90;99.90;;;;;;5080977;28;20148;-61
2022/06/13 00:24:46;;;;;;;9.40;4.57;;;16.90;99.90;;;;;;5089881;28;20453;-62
2022/06/13 00:27:12;;;;;;;11.95;4.28;;;16.80;99.90;;;;;;5087226;28;20051;-64
2022/06/13 00:29:39;;;;;;;9.32;4.40;;;16.70;99.90;;;;;;5088722;28;20114;-62
2022/06/13 00:32:05;;;;;;;12.27;4.40;;;16.60;99.90;;;;;;5082367;28;20032;-60
2022/06/13 00:34:31;;;;;;;11.23;4.20;;;16.50;99.90;;;;;;5073829;28;20631;-62
2022/06/13 00:36:57;;;;;;;14.00;4.22;;;16.40;99.90;;;;;;5088737;28;20472;-60
2022/06/13 00:39:22;;;;;;;10.25;4.35;;;16.40;99.90;;;;;;5080407;28;20039;-61
2022/06/13 00:41:49;;;;;;;7.40;4.10;;;16.40;99.90;;;;;;5080866;28;20028;-60
2022/06/13 00:44:22;;;;;;;9.73;4.60;;;16.30;99.90;;;;;;5070760;28;20036;-60
2022/06/13 00:46:50;;;;;;;7.25;4.97;;;16.30;99.90;;;;;;5070342;28;20067;-60
2022/06/13 00:49:26;;;;;;;10.00;4.32;;;16.40;99.90;;;;;;5081221;28;20073;-60
2022/06/13 00:52:04;;;;;;;9.73;4.55;;;16.40;99.90;;;;;;5090039;28;20464;-60
2022/06/13 00:54:35;;;;;;;7.97;4.28;;;16.40;99.90;;;;;;5070709;28;20032;-65
2022/06/13 00:57:01;;;;;;;8.15;4.20;;;16.40;99.90;;;;;;5078716;28;20024;-61
2022/06/13 00:59:31;;;;;;;8.02;4.47;;;16.40;99.90;;;;;;5087095;28;20105;-61
2022/06/13 01:01:57;;;;;;;10.10;4.85;;;16.50;99.90;;;;;;5083605;28;20036;-60
2022/06/13 01:04:23;;;;;;;9.80;4.32;;;16.50;99.90;;;;;;5073835;28;20119;-60
2022/06/13 01:06:50;;;;;;;9.50;4.70;;;16.40;99.90;;;;;;5080243;28;20541;-61
2022/06/13 01:09:18;;;;;;;10.93;5.40;;;16.20;99.90;;;;;;5083540;28;20761;-63
2022/06/13 01:11:50;;;;;;;11.55;5.30;;;16.10;99.90;;;;;;5080492;28;20028;-63
2022/06/13 01:14:46;;;;;;;12.63;5.15;;;16.00;99.90;;;;;;5085044;28;20124;-61
2022/06/13 01:17:25;;;;;;;17.75;5.63;;;15.90;99.90;;;;;;5073502;28;20028;-66
2022/06/13 01:20:22;;;;;;;12.20;5.38;;;15.90;99.90;;;;;;5082853;28;20480;-61
2022/06/13 01:23:25;;;;;;;13.77;6.43;;;15.90;99.90;;;;;;5086801;28;20024;-60
2022/06/13 01:26:19;;;;;;;12.07;6.53;;;15.90;99.90;;;;;;5066870;28;20070;-61
2022/06/13 01:29:01;;;;;;;16.08;6.35;;;15.90;99.90;;;;;;5083225;28;20048;-61
2022/06/13 01:31:53;;;;;;;11.02;6.00;;;15.80;99.90;;;;;;5074514;28;20033;-61
2022/06/13 01:34:39;;;;;;;9.82;6.68;;;15.80;99.90;;;;;;5072840;28;20066;-61
2022/06/13 01:37:16;;;;;;;15.32;6.80;;;15.80;99.90;;;;;;5077574;28;20381;-61
2022/06/13 01:39:53;;;;;;;10.10;6.43;;;15.70;99.90;;;;;;5084399;28;20036;-61
2022/06/13 01:42:55;;;;;;;10.68;6.28;;;15.70;99.90;;;;;;5086943;28;20676;-62
2022/06/13 01:45:46;;;;;;;10.77;5.75;;;15.80;99.90;;;;;;5077138;28;20036;-61
2022/06/13 01:48:11;;;;;;;;;;;15.80;99.90;;;;;;5081583;28;20064;-61
2022/06/13 01:50:51;;;;;;;11.05;6.00;;;15.90;99.90;;;;;;5070656;28;20009;-62
2022/06/13 01:53:33;;;;;;;11.85;6.15;;;16.00;99.90;;;;;;5084095;28;20035;-66
2022/06/13 01:56:12;;;;;;;11.90;6.32;;;16.00;99.90;;;;;;5090156;28;20418;-62
2022/06/13 01:58:53;;;;;;;10.50;5.88;;;16.10;99.90;;;;;;5083791;28;20059;-60
2022/06/13 02:01:34;;;;;;;;;;;16.10;99.90;;;;;;5082487;28;20133;-61
2022/06/13 02:04:06;;;;;;;;;;;16.20;99.90;;;;;;5083394;28;19908;-60
2022/06/13 02:06:37;;;;;;;13.20;5.88;;;16.10;99.90;;;;;;5083295;28;19946;-60
2022/06/13 02:09:08;;;;;;;12.57;6.15;;;16.00;99.90;;;;;;5070843;28;20029;-61
2022/06/13 02:11:43;;;;;;;8.65;5.50;;;15.90;99.90;;;;;;5085742;28;20085;-62
2022/06/13 02:14:20;;;;;;;11.35;6.55;;;15.90;99.90;;;;;;5077581;28;20048;-61
2022/06/13 02:16:57;;;;;;;11.70;6.65;;;15.80;99.90;;;;;;5076542;28;20473;-62
2022/06/13 02:19:34;;;;;;;10.30;6.30;;;15.70;99.90;;;;;;5073684;28;20032;-62
2022/06/13 02:22:07;;;;;;;9.52;5.90;;;15.70;99.90;;;;;;5075726;28;20037;-63
2022/06/13 02:24:37;;;;;;;10.65;6.30;;;15.70;99.90;;;;;;5067745;28;20043;-62
2022/06/13 02:27:04;;;;;;;;;;;15.70;99.90;;;;;;5073862;28;20098;-61
2022/06/13 02:29:40;;;;;;;12.70;6.25;;;15.60;99.90;;;;;;5070574;28;20665;-64
2022/06/13 02:32:10;;;;;;;13.70;6.63;;;15.50;99.90;;;;;;5068019;28;20039;-61
2022/06/13 02:34:48;;;;;;;11.77;6.20;;;15.50;99.90;;;;;;5067901;28;20601;-66
2022/06/13 02:37:23;;;;;;;12.20;6.35;;;15.50;99.90;;;;;;5065920;28;20047;-62
2022/06/13 02:40:04;;;;;;;13.80;6.43;;;15.50;99.90;;;;;;5080427;28;20028;-62
2022/06/13 02:42:39;;;;;;;11.75;5.97;;;15.50;99.90;;;;;;5075691;28;20089;-61
2022/06/13 02:45:18;;;;;;;9.88;5.60;;;15.40;99.90;;;;;;5076321;28;20085;-64
2022/06/13 02:48:03;;;;;;;10.82;5.60;;;15.50;99.90;;;;;;5079418;28;20499;-64
2022/06/13 02:50:59;;;;;;;11.52;5.45;;;15.40;99.90;;;;;;5076861;28;20025;-64
2022/06/13 02:53:56;;;;;;;8.45;5.50;;;15.40;99.90;;;;;;5079538;28;20735;-64
2022/06/13 02:59:57;;;;;;;11.25;6.13;;;15.30;99.90;;;;;;5082435;28;20043;-64
2022/06/13 03:02:46;;;;;;;11.52;6.55;;;15.30;99.90;;;;;;5064386;28;20032;-63
2022/06/13 03:05:33;;;;;;;11.70;6.63;;;15.30;99.90;;;;;;5057092;28;20102;-64
2022/06/13 03:08:18;;;;;;;12.23;6.70;;;15.30;99.90;;;;;;5077988;28;20044;-64
2022/06/13 03:11:06;;;;;;;11.02;7.10;;;15.30;99.90;;;;;;5086832;28;20526;-64
2022/06/13 03:13:52;;;;;;;12.43;6.88;;;15.20;99.90;;;;;;5086288;28;20472;-63
2022/06/13 03:16:29;;;;;;;14.05;6.68;;;15.20;99.90;;;;;;5075081;28;20035;-65
2022/06/13 03:19:21;;;;;;;13.88;7.18;;;15.10;99.90;;;;;;5068265;28;20109;-63
2022/06/13 03:21:52;;;;;;;14.32;6.88;;;15.20;99.90;;;;;;5078752;28;20036;-63
2022/06/13 03:24:29;;;;;;;10.82;6.75;;;15.20;99.90;;;;;;5085773;28;20392;-65
2022/06/13 03:27:04;;;;;;;9.55;6.18;;;15.20;99.90;;;;;;5088186;28;20020;-64
2022/06/13 03:29:47;;;;;;;11.38;6.55;;;15.10;99.90;;;;;;5068705;28;20047;-64
2022/06/13 03:32:28;;;;;;;12.15;6.88;;;15.10;99.90;;;;;;5075848;28;20035;-63
2022/06/13 03:34:58;;;;;;;11.85;6.75;;;15.10;99.90;;;;;;5072282;28;20032;-63
2022/06/13 03:37:34;;;;;;;11.07;6.72;;;15.20;99.90;;;;;;5073014;28;20072;-65
2022/06/13 03:40:11;;;;;;;13.07;7.00;;;15.20;99.90;;;;;;5095114;28;20047;-64
2022/06/13 03:42:59;;;;;;;13.55;7.35;;;15.30;99.90;;;;;;5087127;28;20119;-63
2022/06/13 03:45:35;;;;;;;11.65;7.35;;;15.30;99.90;;;;;;5077405;28;20507;-64
2022/06/13 03:48:14;;;;;;;14.10;7.50;;;15.30;99.90;;;;;;5071400;28;20037;-64
2022/06/13 03:50:54;;;;;;;12.20;6.90;;;15.40;99.90;;;;;;5082457;28;20163;-64
2022/06/13 03:53:27;;;;;;;15.43;6.85;;;15.40;99.90;;;;;;5085817;28;20032;-66
2022/06/13 03:56:05;;;;;;;11.55;6.28;;;15.40;99.90;;;;;;5090161;28;20536;-64
2022/06/13 03:58:35;;;;;;;11.57;6.53;;;15.40;99.90;;;;;;5089145;28;20040;-64
2022/06/13 04:01:07;;;;;;;10.83;5.97;;;15.50;99.90;;;;;;5077702;28;20041;-64
2022/06/13 04:03:33;;;;;;;11.23;6.25;;;15.50;99.90;;;;;;5088058;28;20028;-65
2022/06/13 04:06:06;;;;;;;10.25;5.75;;;15.50;99.90;;;;;;5089194;28;20479;-64
2022/06/13 04:08:35;;;;;;;12.35;6.75;;;15.60;99.90;;;;;;5087892;28;20035;-64
2022/06/13 04:11:43;;;;;;;11.83;6.50;;;15.70;99.90;;;;;;5091962;28;20036;-63
2022/06/13 04:14:45;;;;;;;10.27;5.75;;;15.80;99.90;;;;;;5088108;28;20028;-63
2022/06/13 04:17:11;;;;;;;10.63;5.65;;;15.80;99.90;;;;;;5086588;28;20035;-64
2022/06/13 04:20:04;;;;;;;11.75;6.05;;;15.80;99.90;;;;;;5087782;28;20043;-66
2022/06/13 04:22:49;;;;;;;13.20;6.60;;;15.90;99.90;;;;;;5090964;28;20028;-64
2022/06/13 04:25:33;;;;;;;13.23;6.03;;;15.90;99.90;;;;;;5091265;28;20032;-64
2022/06/13 04:28:28;;;;;;;12.75;6.75;;;15.90;99.90;;;;;;5090870;28;20143;-64
2022/06/13 04:30:56;;;;;;;10.23;5.95;;;15.90;99.90;;;;;;5091006;28;20032;-64
2022/06/13 04:33:33;;;;;;;10.88;6.25;;;15.90;99.90;;;;;;5090958;28;20028;-65
2022/06/13 04:36:00;;;;;;;12.27;6.10;;;15.90;99.90;;;;;;5088467;28;20039;-64
2022/06/13 04:38:27;;;;;;;11.35;5.63;;;15.90;99.90;;;;;;5090042;28;20042;-66
2022/06/13 04:41:00;;;;;;;9.23;5.57;;;16.00;99.90;;;;;;5090931;28;20081;-64
2022/06/13 04:43:36;;;;;;;9.65;6.18;;;16.20;99.90;;;;;;5090194;28;20119;-65
2022/06/13 04:46:08;;;;;;;10.93;5.60;;;16.30;99.90;;;;;;5089372;28;20032;-64
2022/06/13 04:48:37;;;;;;;11.05;5.97;;;16.30;99.90;;;;;;5071608;28;20563;-65
2022/06/13 04:51:09;;;;;;;15.10;5.78;;;16.40;99.90;;;;;;5069814;28;20128;-64
2022/06/13 04:53:44;;;;;;;9.18;5.45;;;16.50;99.90;;;;;;5076896;28;20032;-64
2022/06/13 04:56:10;;;;;;;9.85;6.05;;;16.60;99.90;;;;;;5084272;28;20445;-64
2022/06/13 04:58:38;;;;;;;9.52;5.90;;;16.60;99.90;;;;;;5082830;28;20036;-65
2022/06/13 05:01:09;;;;;;;8.13;5.88;;;16.60;99.90;;;;;;5082907;28;20043;-64
2022/06/13 05:03:42;;;;;;;11.45;6.40;;;16.60;99.90;;;;;;5084284;28;20032;-66
2022/06/13 05:06:37;;;;;;;11.02;6.13;;;16.80;99.90;;;;;;5084785;28;20067;-66
2022/06/13 05:09:08;;;;;;;13.00;6.05;;;16.90;99.90;;;;;;5069786;28;20032;-64
2022/06/13 05:12:15;;;;;;;8.95;5.30;;;17.00;99.90;;;;;;5078924;28;20552;-65
2022/06/13 05:14:44;;;;;;;10.65;5.85;;;17.10;99.90;;;;;;5081947;28;20473;-66
2022/06/13 05:17:39;;;;;;;10.18;5.95;;;17.10;99.90;;;;;;5087634;28;20043;-63
2022/06/13 05:20:11;;;;;;;12.98;6.13;;;17.10;99.90;;;;;;5082240;28;20495;-64
2022/06/13 05:22:57;;;;;;;9.52;6.25;;;16.90;99.90;;;;;;5090012;28;20051;-63
2022/06/13 05:25:40;;;;;;;12.13;6.30;;;16.80;99.90;;;;;;5089122;28;20036;-64
2022/06/13 05:28:07;;;;;;;12.23;5.82;;;16.90;99.90;;;;;;5087469;28;20056;-63
2022/06/13 05:30:33;;;;;;;10.02;5.43;;;16.90;99.90;;;;;;5084843;28;20027;-64
2022/06/13 05:32:58;;;;;;;12.35;5.95;;;16.90;99.90;;;;;;5079104;28;20108;-66
2022/06/13 05:35:31;;;;;;;12.38;6.07;;;16.90;99.90;;;;;;5089326;28;20034;-65
2022/06/13 05:38:00;;;;;;;13.45;6.10;;;16.90;99.90;;;;;;5088460;28;20050;-66
2022/06/13 05:40:26;;;;;;;14.15;5.68;;;17.00;99.90;;;;;;5089381;28;20039;-65
2022/06/13 05:42:52;;;;;;;11.45;5.80;;;17.00;99.90;;;;;;5087410;28;20028;-65
2022/06/13 05:45:22;;;;;;;15.73;5.47;;;17.00;99.90;;;;;;5089106;28;20058;-66
2022/06/13 05:47:49;;;;;;;12.95;5.15;;;17.00;99.90;;;;;;5088583;28;20506;-65
2022/06/13 05:50:19;;;;;;;13.43;6.13;;;17.10;99.90;;;;;;5089276;28;20601;-66
2022/06/13 05:52:45;;;;;;;12.82;5.20;;;17.30;99.90;;;;;;5087902;28;20043;-65
2022/06/13 05:55:12;;;;;;;9.80;5.00;;;17.20;99.90;;;;;;5089279;28;20028;-65
2022/06/13 05:57:39;;;;;;;10.63;5.18;;;17.30;99.90;;;;;;5088093;28;20028;-65
2022/06/13 06:00:07;;;;;;;12.25;5.28;;;17.40;99.90;;;;;;5088962;28;20426;-67
2022/06/13 06:02:33;;;;;;;13.43;5.05;;;17.40;99.90;;;;;;5088092;28;20069;-66
2022/06/13 06:04:58;;;;;;;10.25;4.78;;;17.30;99.90;;;;;;5089040;28;20422;-66
2022/06/13 06:07:25;;;;;;;8.52;5.18;;;17.40;99.90;;;;;;5088979;28;20354;-66
2022/06/13 06:09:51;;;;;;;11.27;5.40;;;17.40;99.90;;;;;;5086383;28;20086;-66
2022/06/13 06:12:16;;;;;;;11.93;5.47;;;17.30;99.90;;;;;;5087637;28;20044;-66
2022/06/13 06:14:43;;;;;;;13.55;5.82;;;17.40;99.90;;;;;;5085376;28;20322;-66
2022/06/13 06:17:08;;;;;;;9.65;5.80;;;17.50;99.90;;;;;;5084045;28;20067;-66
2022/06/13 06:19:34;;;;;;;11.90;5.78;;;17.60;99.90;;;;;;5088045;28;20071;-67
2022/06/13 06:22:00;;;;;;;12.85;5.00;;;17.70;99.90;;;;;;5083655;28;20730;-66
2022/06/13 06:24:26;;;;;;;10.90;5.25;;;17.70;99.90;;;;;;5090093;28;20110;-66
2022/06/13 06:26:52;;;;;;;12.68;5.55;;;17.80;99.90;;;;;;5106807;28;20023;-67
2022/06/13 06:29:17;;;;;;;9.45;5.60;;;18.00;99.90;;;;;;5089426;28;20067;-67
2022/06/13 06:31:43;;;;;;;18.50;5.70;;;17.90;99.90;;;;;;5080438;28;20064;-67
2022/06/13 06:34:08;;;;;;;13.02;6.18;;;17.90;99.90;;;;;;5083101;28;20032;-66
2022/06/13 06:36:35;;;;;;;14.40;5.57;;;18.00;99.90;;;;;;5086852;28;20031;-67
2022/06/13 06:39:01;;;;;;;8.70;5.22;;;18.00;99.90;;;;;;5083653;28;20111;-67
2022/06/13 06:41:27;;;;;;;12.35;5.35;;;18.00;99.90;;;;;;5087710;28;20040;-67
2022/06/13 06:43:52;;;;;;;11.82;5.90;;;18.20;99.90;;;;;;5085672;28;20039;-67
2022/06/13 06:46:18;;;;;;;12.73;6.00;;;18.30;99.90;;;;;;5086273;28;20490;-67
2022/06/13 06:48:44;;;;;;;9.27;4.90;;;18.50;99.90;;;;;;5083548;28;20044;-67
2022/06/13 06:51:13;;;;;;;13.88;5.90;;;18.60;99.90;;;;;;5084548;28;20055;-67
2022/06/13 07:01:53;;;;;;;12.02;5.03;;;18.60;99.90;;;;;;5071585;28;20031;-67
2022/06/13 07:04:19;;;;;;;9.05;5.47;;;18.70;99.90;;;;;;5079256;28;20028;-67
2022/06/13 07:06:44;;;;;;;13.50;5.35;;;18.70;99.90;;;;;;5086293;28;20032;-67
2022/06/13 07:09:10;;;;;;;11.32;5.40;;;18.50;99.90;;;;;;5087590;28;20028;-67
2022/06/13 07:11:56;;;;;;;12.68;5.40;;;18.30;99.90;;;;;;5093304;28;20036;-70
2022/06/13 07:14:25;;;;;;;12.65;5.40;;;18.30;99.90;;;;;;5085194;28;20032;-62
2022/06/13 07:16:51;;;;;;;9.50;5.38;;;18.50;99.90;;;;;;5085201;28;20166;-63
2022/06/13 07:19:17;;;;;;;10.07;4.65;;;18.60;99.90;;;;;;5091979;28;20036;-64
2022/06/13 07:21:43;;;;;;;7.63;4.10;;;19.00;99.90;;;;;;5086145;28;20360;-63
2022/06/13 07:24:09;;;;;;;11.45;4.93;;;19.20;99.90;;;;;;5091743;28;20024;-63
2022/06/13 07:26:36;;;;;;;9.90;4.90;;;19.30;99.90;;;;;;5089282;28;20031;-66
2022/06/13 07:29:01;;;;;;;15.32;4.50;;;19.40;99.90;;;;;;5079008;28;20073;-63
2022/06/13 07:31:38;;;;;;;8.38;4.10;;;19.60;99.90;;;;;;5089189;28;20103;-63
2022/06/13 07:34:06;;;;;;;10.52;4.47;;;19.20;99.90;;;;;;5083899;28;20587;-65
2022/06/13 07:36:32;;;;;;;13.10;4.20;;;19.20;99.90;;;;;;5080862;28;20039;-64
2022/06/13 07:38:57;;;;;;;10.07;3.78;;;19.50;99.90;;;;;;5091355;28;20044;-64
2022/06/13 07:41:25;;;;;;;11.82;4.28;;;19.80;99.90;;;;;;5091127;28;20035;-64
2022/06/13 07:43:52;;;;;;;9.45;4.15;;;20.00;99.90;;;;;;5088197;28;20032;-64
2022/06/13 07:46:23;;;;;;;11.13;3.58;;;20.20;99.90;;;;;;5091112;28;20024;-65
2022/06/13 07:48:49;;;;;;;9.35;3.63;;;20.50;99.90;;;;;;5088979;28;20044;-64
2022/06/13 07:51:15;;;;;;;7.93;3.60;;;20.50;99.90;;;;;;5091474;28;20027;-64
2022/06/13 07:53:41;;;;;;;10.52;3.95;;;20.50;99.90;;;;;;5090458;28;20028;-64
2022/06/13 07:56:07;;;;;;;13.90;4.05;;;20.60;99.90;;;;;;5091541;28;20037;-64
2022/06/13 07:58:35;;;;;;;10.55;4.00;;;20.70;99.90;;;;;;5091157;28;20040;-64
2022/06/13 08:01:01;;;;;;;10.55;3.95;;;21.00;99.90;;;;;;5091117;28;20046;-64
2022/06/13 08:03:30;;;;;;;11.38;4.57;;;21.10;99.90;;;;;;5090465;28;20415;-64
2022/06/13 08:05:57;;;;;;;15.15;4.45;;;21.20;99.90;;;;;;5090326;28;20600;-65
2022/06/13 08:08:23;;;;;;;9.40;4.35;;;21.10;99.90;;;;;;5091156;28;20039;-62
2022/06/13 08:10:50;;;;;;;9.18;4.82;;;20.60;99.90;;;;;;5090247;28;20020;-63
2022/06/13 08:13:19;;;;;;;9.43;4.65;;;20.30;99.90;;;;;;5090347;28;20128;-63
2022/06/13 08:15:45;;;;;;;15.82;4.68;;;20.30;99.90;;;;;;5090326;28;20390;-63
2022/06/13 08:18:13;;;;;;;12.60;5.18;;;20.10;99.90;;;;;;5088873;28;20028;-64
2022/06/13 08:20:40;;;;;;;10.85;4.47;;;20.10;99.90;;;;;;5090116;28;20063;-66
2022/06/13 08:23:09;;;;;;;13.77;3.92;;;20.30;99.90;;;;;;5090539;28;20712;-63
2022/06/13 08:25:36;;;;;;;10.98;4.53;;;20.70;99.90;;;;;;5090510;28;20032;-64
2022/06/13 08:28:03;;;;;;;10.73;4.50;;;20.70;99.90;;;;;;5090012;28;20054;-62
2022/06/13 08:30:38;;;;;;;8.10;3.55;;;20.70;99.90;;;;;;5090742;28;20047;-64
2022/06/13 08:33:04;;;;;;;13.35;4.68;;;20.80;99.90;;;;;;5068999;28;20140;-65
2022/06/13 08:35:30;;;;;;;10.63;4.25;;;21.10;99.90;;;;;;5070437;28;20108;-64
2022/06/13 08:37:56;;;;;;;13.13;4.28;;;21.10;99.90;;;;;;5069550;28;20112;-63
2022/06/13 08:40:26;;;;;;;13.43;4.10;;;21.10;99.90;;;;;;5080205;28;20078;-63
2022/06/13 08:43:06;;;;;;;9.85;3.78;;;21.20;99.90;;;;;;5089076;28;20103;-63
2022/06/13 08:45:39;;;;;;;8.13;3.40;;;21.30;99.90;;;;;;5090120;28;20394;-63
2022/06/13 08:48:12;;;;;;;14.00;4.60;;;21.50;99.90;;;;;;5090502;28;20039;-64
2022/06/13 08:50:53;;;;;;;9.93;4.47;;;21.30;99.90;;;;;;5090175;28;20028;-66
2022/06/13 08:53:23;;;;;;;14.23;4.38;;;20.90;99.90;;;;;;5089913;28;20032;-63
2022/06/13 08:55:58;;;;;;;12.50;3.95;;;21.00;99.90;;;;;;5088837;28;20419;-64
2022/06/13 08:58:36;;;;;;;11.60;4.00;;;21.30;99.90;;;;;;5090035;28;20067;-64
2022/06/13 09:01:19;;;;;;;7.25;3.75;;;21.30;99.90;;;;;;5089481;28;20070;-64
2022/06/13 09:04:03;;;;;;;9.38;3.63;;;21.40;99.90;;;;;;5089218;28;20161;-64
2022/06/13 09:06:42;;;;;;;9.20;4.20;;;21.60;99.90;;;;;;5089881;28;20032;-65
2022/06/13 09:09:32;;;;;;;14.50;4.40;;;21.90;99.90;;;;;;5089305;28;20032;-64
2022/06/13 09:12:02;;;;;;;14.15;4.60;;;21.90;99.90;;;;;;5089088;28;20082;-64
2022/06/13 09:14:58;;;;;;;10.90;3.85;;;21.70;99.90;;;;;;5089666;28;20081;-63
2022/06/13 09:17:42;;;;;;;19.35;4.72;;;21.30;99.90;;;;;;5089686;28;20032;-63
2022/06/13 09:20:17;;;;;;;10.35;3.03;;;21.70;99.90;;;;;;5089356;28;20043;-63
2022/06/13 09:23:03;;;;;;;11.80;3.65;;;22.00;99.90;;;;;;5087705;28;20028;-66
2022/06/13 09:25:59;;;;;;;10.40;4.00;;;22.20;99.90;;;;;;5089793;28;20139;-63
2022/06/13 09:28:43;;;;;;;11.30;4.30;;;22.10;99.90;;;;;;5087028;28;20055;-64
2022/06/13 09:31:27;;;;;;;7.70;3.55;;;22.10;99.90;;;;;;5087914;28;20031;-64
2022/06/13 09:33:59;;;;;;;14.48;3.85;;;21.80;99.90;;;;;;5087089;28;20032;-63
2022/06/13 09:36:34;;;;;;;11.93;3.60;;;21.40;99.90;;;;;;5088036;28;20028;-63
2022/06/13 09:39:10;;;;;;;10.18;3.90;;;21.50;99.90;;;;;;5088672;28;20028;-64
2022/06/13 09:41:45;;;;;;;10.18;4.07;;;21.70;99.90;;;;;;5089173;28;20028;-63
2022/06/13 09:44:32;;;;;;;12.10;3.45;;;21.60;99.90;;;;;;5069135;28;20444;-64
2022/06/13 09:47:25;;;;;;;7.55;3.63;;;21.60;99.90;;;;;;5068184;28;20032;-63
2022/06/13 09:50:21;;;;;;;13.30;3.53;;;21.50;99.90;;;;;;5085107;28;20031;-63
2022/06/13 09:53:08;;;;;;;11.70;3.40;;;21.00;99.90;;;;;;5088190;28;20031;-63
2022/06/13 09:55:46;;;;;;;8.23;3.10;;;21.00;99.90;;;;;;5087910;28;20032;-64
2022/06/13 09:58:19;;;;;;;11.52;3.30;;;21.40;99.90;;;;;;5088827;28;20039;-64
2022/06/13 10:00:57;;;;;;;8.57;3.00;;;21.80;99.90;;;;;;5088724;28;20027;-67
2022/06/13 10:03:49;;;;;;;7.53;3.30;;;21.90;99.90;;;;;;5087239;28;20093;-63
2022/06/13 10:06:36;;;;;;;6.50;3.35;;;21.60;99.90;;;;;;5088968;28;20036;-63
2022/06/13 10:09:12;;;;;;;8.55;3.28;;;21.10;99.90;;;;;;5087986;28;20297;-63
2022/06/13 10:11:56;;;;;;;8.68;3.17;;;20.70;99.90;;;;;;5088968;28;20032;-63
2022/06/13 10:14:34;;;;;;;10.23;3.20;;;20.40;99.90;;;;;;5087564;28;20115;-63
2022/06/13 10:17:15;;;;;;;5.78;2.65;;;20.60;99.90;;;;;;5087694;28;20056;-62
2022/06/13 10:20:03;;;;;;;10.57;3.17;;;20.80;99.90;;;;;;5087357;28;20051;-63
2022/06/13 10:23:14;;;;;;;10.20;3.22;;;20.70;99.90;;;;;;5088693;28;20040;-63
2022/06/13 10:25:58;;;;;;;7.45;2.90;;;20.80;99.90;;;;;;5064396;28;20520;-62
2022/06/13 10:28:49;;;;;;;10.88;2.92;;;21.20;99.90;;;;;;5088692;28;20507;-64
2022/06/13 10:31:33;;;;;;;6.53;2.92;;;20.90;99.90;;;;;;5088666;28;20028;-62
2022/06/13 10:34:19;;;;;;;5.40;2.70;;;21.10;99.90;;;;;;5087047;28;20024;-62
2022/06/13 10:37:04;;;;;;;6.47;2.42;;;21.60;99.90;;;;;;5088511;28;20028;-66
2022/06/13 10:39:30;;;;;;;6.10;2.53;;;21.80;99.90;;;;;;5088463;28;20081;-64
2022/06/13 10:42:03;;;;;;;5.18;2.20;;;22.10;99.80;;;;;;5087994;28;20043;-62
2022/06/13 10:44:28;;;;;;;6.97;2.78;;;22.20;97.50;;;;;;5089720;28;20043;-63
2022/06/13 10:47:01;;;;;;;3.63;2.38;;;22.30;96.50;;;;;;5092118;28;20028;-64
2022/06/13 10:49:45;;;;;;;5.28;2.17;;;22.40;94.90;;;;;;5089501;28;20472;-63
2022/06/13 10:52:14;;;;;;;8.52;2.50;;;22.50;97.60;;;;;;5090076;28;20061;-62
2022/06/13 10:54:50;;;;;;;12.73;3.08;;;22.70;95.40;;;;;;5092754;28;20032;-62
2022/06/13 10:57:29;;;;;;;6.03;2.40;;;22.60;93.00;;;;;;5092404;28;20036;-62
2022/06/13 11:00:30;;;;;;;9.77;2.83;;;22.70;96.80;;;;;;5071415;28;20119;-64
2022/06/13 11:03:15;;;;;;;6.60;2.88;;;22.20;93.40;;;;;;5030665;28;20025;-62
2022/06/13 11:06:13;;;;;;;7.97;2.50;;;22.10;93.60;;;;;;5070207;28;20033;-63
2022/06/13 11:08:40;;;;;;;8.10;2.60;;;21.90;94.50;;;;;;5071710;28;20039;-64
2022/06/13 11:11:15;;;;;;;7.15;2.70;;;22.10;95.20;;;;;;5071311;28;20614;-63
2022/06/13 11:13:43;;;;;;;4.90;2.53;;;22.00;94.70;;;;;;5072109;28;20471;-62
2022/06/13 11:25:01;;;;;;;6.50;2.78;;;22.00;93.20;;;;;;5091420;28;19915;-63
2022/06/13 11:27:40;;;;;;;5.57;2.65;;;21.60;93.10;;;;;;5091668;28;20055;-63
2022/06/13 11:30:28;;;;;;;7.25;2.47;;;21.70;94.20;;;;;;5091192;28;20036;-63
2022/06/13 11:33:08;;;;;;;6.45;2.85;;;21.80;92.50;;;;;;5090563;28;20023;-63
2022/06/13 11:35:44;;;;;;;5.30;2.50;;;21.80;92.40;;;;;;5092119;28;20016;-63
2022/06/13 11:38:29;;;;;;;9.23;2.53;;;21.70;91.70;;;;;;5091147;28;20097;-63
2022/06/13 11:41:13;;;;;;;6.50;2.20;;;22.20;92.90;;;;;;5091011;28;20020;-63
2022/06/13 11:43:58;;;;;;;5.57;2.25;;;22.70;86.10;;;;;;5091745;28;20031;-63
2022/06/13 11:46:28;;;;;;;10.85;2.80;;;22.60;85.80;;;;;;5090329;28;20087;-64
2022/06/13 11:48:55;;;;;;;5.80;2.33;;;22.80;88.80;;;;;;5090435;28;20039;-63
2022/06/13 11:51:24;;;;;;;7.07;1.90;;;23.40;91.70;;;;;;5091270;28;20082;-63
2022/06/13 11:53:53;;;;;;;3.85;1.90;;;23.80;86.20;;;;;;5091388;28;20472;-66
2022/06/13 11:56:31;;;;;;;5.28;2.03;;;23.30;78.90;;;;;;5091016;28;20117;-63
2022/06/13 11:59:01;;;;;;;6.53;2.50;;;23.10;80.20;;;;;;5090388;28;20075;-63
2022/06/13 12:01:35;;;;;;;7.40;2.95;;;23.00;84.60;;;;;;5091192;28;20046;-63
2022/06/13 12:04:20;;;;;;;11.38;2.40;;;23.10;82.90;;;;;;5090567;28;20039;-62
2022/06/13 12:07:03;;;;;;;7.20;2.83;;;22.70;82.80;;;;;;5091303;28;20032;-63
2022/06/13 12:09:33;;;;;;;7.28;2.67;;;22.70;80.00;;;;;;5091270;28;20051;-64
2022/06/13 12:12:02;;;;;;;4.03;2.10;;;22.70;77.80;;;;;;5090306;28;20042;-63
2022/06/13 12:14:29;;;;;;;3.60;2.25;;;23.00;78.50;;;;;;5091019;28;20059;-62
2022/06/13 12:17:00;;;;;;;5.03;2.13;;;22.80;78.90;;;;;;5089864;28;20081;-63
2022/06/13 12:19:33;;;;;;;7.45;2.20;;;22.50;75.70;;;;;;5090475;28;20032;-63
2022/06/13 12:22:02;;;;;;;5.28;1.88;;;22.70;78.70;;;;;;5090087;28;20460;-62
2022/06/13 12:25:10;;;;;;;4.40;2.20;;;23.00;80.60;;;;;;5090766;28;20040;-63
2022/06/13 12:27:54;;;;;;;9.63;2.20;;;22.90;80.30;;;;;;5090395;28;20056;-63
2022/06/13 12:30:29;;;;;;;10.13;2.00;;;22.80;85.40;;;;;;5090606;28;20040;-62
2022/06/13 12:33:19;;;;;;;8.18;1.80;;;22.90;88.30;;;;;;5089793;28;20107;-66
2022/06/13 12:36:03;;;;;;;;;;;23.60;85.10;;;;;;5079817;28;20036;-62
2022/06/13 12:38:50;;;;;;;3.88;1.50;;;24.20;80.00;;;;;;5090664;28;19908;-63
2022/06/13 12:41:29;;;;;;;7.95;1.90;;;24.20;76.10;;;;;;5089771;28;20469;-62
2022/06/13 12:44:36;;;;;;;4.47;1.90;;;24.20;72.40;;;;;;5089559;28;20061;-66
2022/06/13 12:47:23;;;;;;;3.95;2.10;;;24.00;74.50;;;;;;5059836;28;20036;-62
2022/06/13 12:50:26;;;;;;;6.95;1.90;;;23.70;66.20;;;;;;5090199;28;20032;-62
2022/06/13 12:53:25;;;;;;;4.55;1.77;;;23.30;70.40;;;;;;5089156;28;20032;-66
2022/06/13 12:56:09;;;;;;;4.55;1.40;;;23.50;73.80;;;;;;5090694;28;20031;-64
2022/06/13 12:58:59;;;;;;;5.22;1.65;;;23.70;72.00;;;;;;5089979;28;20036;-64
2022/06/13 13:01:35;;;;;;;3.92;1.75;;;23.80;75.60;;;;;;5090392;28;20024;-63
2022/06/13 13:04:31;;;;;;;10.00;2.20;;;23.30;74.00;;;;;;5089785;28;20024;-63
2022/06/13 13:07:00;;;;;;;6.05;1.95;;;23.50;78.00;;;;;;5086752;28;20223;-66
2022/06/13 13:09:57;;;;;;;5.45;1.88;;;23.80;75.00;;;;;;5089033;28;20032;-64
2022/06/13 13:12:31;;;;;;;6.85;2.20;;;24.10;74.50;;;;;;5072389;28;20397;-62
2022/06/13 13:15:10;;;;;;;4.93;2.10;;;24.50;71.80;;;;;;5089205;28;20093;-67
2022/06/13 13:17:38;;;;;;;6.30;2.22;;;24.10;69.50;;;;;;5089691;28;20055;-63
2022/06/13 13:20:22;;;;;;;8.57;2.03;;;23.50;69.40;;;;;;5088794;28;20067;-65
2022/06/13 13:23:29;;;;;;;7.22;2.53;;;23.20;71.10;;;;;;5088774;28;20451;-63
2022/06/13 13:26:05;;;;;;;4.18;1.95;;;23.40;75.70;;;;;;5089450;28;20035;-66
2022/06/13 13:29:01;;;;;;;5.25;2.10;;;23.90;78.50;;;;;;5089081;28;20060;-63
2022/06/13 13:31:51;;;;;;;4.28;2.00;;;24.00;75.70;;;;;;5088732;28;20032;-62
2022/06/13 13:34:38;;;;;;;4.97;2.22;;;24.30;71.90;;;;;;5088766;28;20028;-63
2022/06/13 13:37:09;;;;;;;6.15;2.35;;;24.00;70.00;;;;;;5086845;28;20063;-63
2022/06/13 13:39:43;;;;;;;5.60;1.90;;;24.00;72.90;;;;;;5089241;28;20035;-63
2022/06/13 13:42:24;;;;;;;3.17;1.95;;;24.40;70.20;;;;;;5088881;28;20032;-64
2022/06/13 13:44:56;;;;;;;5.22;1.75;;;24.50;72.70;;;;;;5089508;28;20028;-63
2022/06/13 13:47:23;;;;;;;4.20;1.80;;;24.80;74.90;;;;;;5088886;28;20051;-63